Terminal Aerodrome Forecast
Issued by NWS Grand Forks, ND

Home | Current Version | Previous Version | Graphics & Text | Print | Product List | Glossary On
Versions: 1 2 3 4 5 6 7 8 9 10 11 12
255
FTUS43 KFGF 281128
TAFFAR
TAF
KFAR 281128Z 2812/2912 33005KT P6SM SKC
     FM281600 35009KT P6SM SKC
     FM290200 01005KT P6SM SKC=

USA.gov is the U.S. government's official web portal to all federal, state and local government web resources and services.